createdAt,value
2022-12-11T00:00:18.520Z,100.00
2022-12-11T00:03:21.519Z,100.00
2022-12-11T00:06:24.310Z,100.00
2022-12-11T00:09:27.333Z,100.00
2022-12-11T00:12:31.106Z,100.00
2022-12-11T00:15:33.975Z,100.00
2022-12-11T00:18:37.636Z,100.00
2022-12-11T00:21:40.570Z,100.00
2022-12-11T00:24:43.285Z,100.00
2022-12-11T00:27:47.146Z,100.00
2022-12-11T00:30:50.148Z,100.00
2022-12-11T00:33:53.231Z,100.00
2022-12-11T00:36:59.249Z,100.00
2022-12-11T00:40:02.265Z,100.00
2022-12-11T00:43:05.437Z,100.00
2022-12-11T00:46:08.539Z,100.00
2022-12-11T00:49:11.187Z,100.00
2022-12-11T00:52:14.212Z,100.00
2022-12-11T00:55:16.883Z,100.00
2022-12-11T00:58:20.300Z,100.00
2022-12-11T01:01:25.388Z,100.00
2022-12-11T01:04:28.523Z,100.00
2022-12-11T01:07:31.146Z,100.00
2022-12-11T01:10:34.919Z,100.00
2022-12-11T01:13:38.399Z,100.00
2022-12-11T01:16:41.396Z,100.00
2022-12-11T01:19:44.020Z,100.00
2022-12-11T01:22:47.349Z,100.00
2022-12-11T01:25:50.068Z,100.00
2022-12-11T01:28:53.083Z,100.00
2022-12-11T01:31:55.831Z,100.00
2022-12-11T01:34:58.850Z,100.00
2022-12-11T01:38:01.553Z,100.00
2022-12-11T01:41:04.756Z,100.00
2022-12-11T01:44:16.591Z,100.00
2022-12-11T01:47:19.681Z,100.00
2022-12-11T01:50:22.649Z,100.00
2022-12-11T01:53:31.437Z,100.00
2022-12-11T01:56:37.244Z,100.00
2022-12-11T01:59:43.243Z,100.00
2022-12-11T02:02:46.139Z,100.00
2022-12-11T02:05:49.342Z,100.00
2022-12-11T02:08:51.967Z,100.00
2022-12-11T02:12:22.776Z,100.00
2022-12-11T02:15:40.108Z,100.00
2022-12-11T02:18:53.733Z,100.00
2022-12-11T02:21:57.832Z,100.00
2022-12-11T02:25:10.974Z,100.00
2022-12-11T02:28:25.862Z,100.00
2022-12-11T02:31:53.256Z,100.00
2022-12-11T02:35:03.447Z,100.00
2022-12-11T02:38:13.076Z,100.00
2022-12-11T02:41:18.586Z,100.00
2022-12-11T02:44:25.575Z,100.00
2022-12-11T02:47:30.560Z,100.00
2022-12-11T02:50:36.287Z,100.00
2022-12-11T02:53:42.212Z,100.00
2022-12-11T02:56:53.815Z,100.00
2022-12-11T02:59:56.626Z,100.00
2022-12-11T03:02:59.656Z,100.00
2022-12-11T03:06:02.602Z,100.00
2022-12-11T03:09:06.902Z,100.00
2022-12-11T03:12:13.711Z,100.00
2022-12-11T03:15:19.637Z,100.00
2022-12-11T03:18:34.475Z,100.00
2022-12-11T03:21:54.558Z,100.00
2022-12-11T03:25:02.711Z,100.00
2022-12-11T03:28:19.537Z,100.00
2022-12-11T03:31:44.183Z,100.00
2022-12-11T03:34:58.182Z,100.00
2022-12-11T03:38:06.383Z,100.00
2022-12-11T03:41:11.897Z,100.00
2022-12-11T03:44:15.952Z,100.00
2022-12-11T03:47:22.971Z,100.00
2022-12-11T03:50:28.863Z,100.00
2022-12-11T03:53:34.688Z,100.00
2022-12-11T03:56:40.935Z,100.00
2022-12-11T03:59:44.300Z,100.00
2022-12-11T04:03:11.359Z,100.00
2022-12-11T04:06:16.523Z,100.00
2022-12-11T04:09:19.241Z,100.00
2022-12-11T04:12:22.276Z,100.00
2022-12-11T04:15:24.880Z,100.00
2022-12-11T04:18:46.601Z,100.00
2022-12-11T04:22:07.852Z,100.00
2022-12-11T04:25:10.894Z,100.00
2022-12-11T04:28:13.885Z,100.00
2022-12-11T04:31:21.044Z,100.00
2022-12-11T04:34:23.806Z,100.00
2022-12-11T04:37:27.823Z,100.00
2022-12-11T04:40:30.670Z,100.00
2022-12-11T04:43:33.894Z,100.00
2022-12-11T04:46:36.524Z,100.00
2022-12-11T04:49:39.420Z,100.00
2022-12-11T04:52:43.339Z,100.00
2022-12-11T04:55:46.166Z,100.00
2022-12-11T04:58:49.646Z,100.00
2022-12-11T05:01:52.681Z,100.00
2022-12-11T05:04:55.362Z,100.00
2022-12-11T05:07:58.348Z,100.00
2022-12-11T05:11:03.810Z,100.00
2022-12-11T05:14:06.874Z,100.00
2022-12-11T05:17:09.411Z,100.00
2022-12-11T05:20:12.334Z,100.00
2022-12-11T05:23:14.932Z,100.00
2022-12-11T05:26:20.070Z,100.00
2022-12-11T05:29:22.649Z,100.00
2022-12-11T05:32:25.561Z,100.00
2022-12-11T05:35:28.138Z,100.00
2022-12-11T05:38:31.371Z,100.00
2022-12-11T05:41:34.047Z,100.00
2022-12-11T05:44:36.957Z,100.00
2022-12-11T05:47:39.538Z,100.00
2022-12-11T05:50:42.452Z,100.00
2022-12-11T05:53:46.764Z,100.00
2022-12-11T05:56:51.188Z,100.00
2022-12-11T05:59:53.831Z,100.00
2022-12-11T06:02:56.778Z,100.00
2022-12-11T06:06:03.088Z,99.81
2022-12-11T06:09:06.396Z,100.00
2022-12-11T06:12:09.420Z,100.00
2022-12-11T06:15:12.207Z,100.00
2022-12-11T06:18:15.152Z,100.00
2022-12-11T06:21:25.266Z,100.00
2022-12-11T06:24:28.168Z,99.80
2022-12-11T06:27:31.135Z,100.00
2022-12-11T06:30:38.329Z,100.00
2022-12-11T06:33:42.348Z,100.00
2022-12-11T06:36:45.276Z,100.00
2022-12-11T06:39:47.925Z,100.00
2022-12-11T06:42:50.772Z,100.00
2022-12-11T06:45:53.462Z,100.00
2022-12-11T06:48:56.401Z,99.90
2022-12-11T06:51:59.082Z,100.00
2022-12-11T06:55:01.969Z,100.00
2022-12-11T06:58:04.673Z,100.00
2022-12-11T07:01:16.007Z,99.39
2022-12-11T07:04:18.956Z,100.00
2022-12-11T07:07:21.882Z,100.00
2022-12-11T07:10:24.882Z,100.00
2022-12-11T07:13:27.810Z,100.00
2022-12-11T07:16:30.548Z,100.00
2022-12-11T07:19:33.597Z,99.67
2022-12-11T07:22:39.328Z,99.90
2022-12-11T07:25:46.483Z,100.00
2022-12-11T07:28:50.020Z,97.87
2022-12-11T07:31:53.061Z,99.34
2022-12-11T07:34:55.812Z,98.25
2022-12-11T07:37:59.779Z,97.77
2022-12-11T07:41:03.376Z,99.23
2022-12-11T07:44:06.288Z,97.65
2022-12-11T07:47:08.935Z,97.63
2022-12-11T07:50:12.199Z,98.18
2022-12-11T07:53:14.888Z,98.57
2022-12-11T07:56:18.902Z,98.59
2022-12-11T07:59:21.649Z,98.08
2022-12-11T08:02:24.688Z,98.55
2022-12-11T08:05:27.681Z,98.36
2022-12-11T08:08:30.291Z,99.37
2022-12-11T08:11:34.647Z,99.01
2022-12-11T08:14:37.640Z,98.58
2022-12-11T08:17:40.541Z,98.04
2022-12-11T08:20:43.211Z,98.17
2022-12-11T08:23:48.099Z,97.35
2022-12-11T08:26:50.724Z,98.05
2022-12-11T08:29:53.572Z,97.49
2022-12-11T08:32:56.234Z,97.62
2022-12-11T08:35:59.134Z,96.93
2022-12-11T08:39:01.722Z,97.24
2022-12-11T08:42:05.285Z,98.60
2022-12-11T08:45:08.697Z,97.83
2022-12-11T08:48:11.717Z,97.98
2022-12-11T08:51:17.095Z,99.03
2022-12-11T08:54:20.262Z,96.21
2022-12-11T08:57:25.435Z,95.67
2022-12-11T09:00:28.598Z,96.69
2022-12-11T09:03:31.204Z,94.37
2022-12-11T09:06:34.159Z,97.57
2022-12-11T09:09:36.784Z,97.59
2022-12-11T09:12:40.987Z,96.16
2022-12-11T09:15:43.648Z,94.61
2022-12-11T09:18:48.118Z,96.60
2022-12-11T09:21:50.772Z,96.44
2022-12-11T09:24:53.695Z,94.63
2022-12-11T09:27:56.322Z,95.73
2022-12-11T09:30:59.795Z,95.65
2022-12-11T09:34:06.524Z,94.67
2022-12-11T09:37:09.438Z,95.59
2022-12-11T09:40:12.663Z,94.91
2022-12-11T09:43:22.636Z,93.81
2022-12-11T09:46:29.569Z,94.88
2022-12-11T09:49:42.720Z,94.79
2022-12-11T09:53:33.884Z,94.64
2022-12-11T09:56:45.625Z,94.37
2022-12-11T10:00:11.501Z,94.30
2022-12-11T10:03:38.523Z,95.42
2022-12-11T10:07:05.286Z,94.20
2022-12-11T10:10:17.556Z,94.72
2022-12-11T10:13:41.884Z,94.70
2022-12-11T10:16:48.961Z,94.29
2022-12-11T10:19:52.354Z,95.74
2022-12-11T10:22:56.969Z,94.67
2022-12-11T10:26:06.523Z,94.60
2022-12-11T10:29:14.988Z,92.66
2022-12-11T10:32:24.789Z,91.52
2022-12-11T10:35:40.575Z,93.07
2022-12-11T10:38:45.621Z,92.80
2022-12-11T10:41:53.333Z,93.36
2022-12-11T10:45:01.168Z,92.75
2022-12-11T10:48:07.371Z,93.35
2022-12-11T10:51:10.034Z,94.55
2022-12-11T10:54:33.852Z,91.50
2022-12-11T10:57:39.254Z,91.45
2022-12-11T11:00:42.566Z,91.61
2022-12-11T11:04:15.530Z,92.41
2022-12-11T11:07:18.358Z,92.01
2022-12-11T11:10:21.379Z,89.24
2022-12-11T11:13:26.984Z,90.48
2022-12-11T11:16:30.184Z,92.19
2022-12-11T11:19:35.880Z,90.14
2022-12-11T11:22:49.566Z,88.91
2022-12-11T11:26:02.209Z,88.91
2022-12-11T11:29:05.324Z,90.44
2022-12-11T11:32:20.252Z,89.52
2022-12-11T11:35:28.085Z,89.63
2022-12-11T11:38:36.654Z,90.87
2022-12-11T11:41:39.160Z,89.70
2022-12-11T11:44:56.035Z,91.79
2022-12-11T11:48:09.467Z,90.57
2022-12-11T11:51:20.560Z,90.50
2022-12-11T11:54:55.484Z,90.29
2022-12-11T11:58:12.600Z,91.76
2022-12-11T12:01:17.899Z,91.33
2022-12-11T12:04:20.828Z,91.63
2022-12-11T12:07:42.287Z,91.09
2022-12-11T12:11:09.427Z,92.44
2022-12-11T12:14:52.112Z,92.01
2022-12-11T12:17:58.589Z,93.14
2022-12-11T12:21:27.704Z,93.62
2022-12-11T12:24:40.127Z,92.08
2022-12-11T12:28:13.994Z,92.36
2022-12-11T12:31:20.304Z,93.06
2022-12-11T12:34:55.398Z,93.40
2022-12-11T12:38:07.451Z,94.18
2022-12-11T12:41:22.603Z,93.77
2022-12-11T12:44:28.894Z,93.82
2022-12-11T12:47:36.202Z,94.42
2022-12-11T12:50:46.519Z,94.97
2022-12-11T12:53:55.586Z,93.59
2022-12-11T12:56:59.993Z,93.63
2022-12-11T13:00:08.143Z,94.77
2022-12-11T13:03:17.558Z,94.19
2022-12-11T13:06:40.907Z,92.98
2022-12-11T13:09:44.254Z,91.83
2022-12-11T13:12:47.075Z,93.25
2022-12-11T13:15:50.026Z,95.39
2022-12-11T13:18:56.279Z,94.02
2022-12-11T13:22:00.056Z,93.83
2022-12-11T13:25:20.299Z,96.37
2022-12-11T13:28:31.400Z,95.58
2022-12-11T13:31:37.142Z,96.53
2022-12-11T13:34:44.306Z,94.80
2022-12-11T13:37:50.166Z,96.51
2022-12-11T13:40:55.827Z,97.32
2022-12-11T13:43:59.002Z,96.23
2022-12-11T13:47:03.934Z,96.83
2022-12-11T13:50:34.453Z,95.92
2022-12-11T13:53:37.371Z,95.19
2022-12-11T13:56:40.300Z,94.71
2022-12-11T13:59:48.884Z,94.52
2022-12-11T14:02:54.643Z,93.27
2022-12-11T14:05:57.679Z,92.74
2022-12-11T14:09:02.982Z,92.13
2022-12-11T14:12:06.539Z,90.46
2022-12-11T14:15:14.720Z,93.03
2022-12-11T14:18:25.192Z,90.61
2022-12-11T14:21:27.836Z,90.09
2022-12-11T14:24:32.047Z,91.62
2022-12-11T14:27:34.909Z,92.09
2022-12-11T14:30:45.135Z,92.29
2022-12-11T14:33:53.407Z,93.07
2022-12-11T14:36:57.070Z,93.14
2022-12-11T14:40:07.304Z,92.64
2022-12-11T14:43:18.640Z,94.09
2022-12-11T14:46:32.818Z,94.26
2022-12-11T14:50:19.532Z,94.13
2022-12-11T14:53:28.399Z,94.40
2022-12-11T14:56:31.897Z,93.51
2022-12-11T14:59:41.340Z,94.21
2022-12-11T15:03:17.544Z,92.51
2022-12-11T15:06:29.062Z,94.84
2022-12-11T15:09:36.237Z,95.66
2022-12-11T15:12:45.175Z,93.86
2022-12-11T15:15:48.660Z,93.86
2022-12-11T15:18:54.483Z,94.12
2022-12-11T15:22:09.947Z,94.33
2022-12-11T15:25:24.263Z,93.60
2022-12-11T15:28:34.281Z,93.84
2022-12-11T15:31:37.292Z,94.05
2022-12-11T15:34:46.255Z,93.28
2022-12-11T15:37:55.819Z,93.72
2022-12-11T15:40:59.600Z,94.78
2022-12-11T15:44:04.214Z,95.69
2022-12-11T15:47:21.279Z,95.83
2022-12-11T15:50:28.695Z,93.87
2022-12-11T15:53:31.639Z,93.90
2022-12-11T15:56:34.314Z,92.21
2022-12-11T15:59:37.183Z,93.57
2022-12-11T16:02:40.185Z,94.57
2022-12-11T16:05:43.456Z,94.24
2022-12-11T16:08:46.344Z,95.22
2022-12-11T16:11:49.307Z,94.26
2022-12-11T16:14:52.481Z,94.95
2022-12-11T16:18:10.653Z,93.78
2022-12-11T16:21:16.853Z,93.83
2022-12-11T16:24:24.383Z,93.06
2022-12-11T16:27:27.029Z,95.50
2022-12-11T16:30:31.321Z,93.73
2022-12-11T16:33:34.140Z,95.09
2022-12-11T16:36:38.070Z,94.93
2022-12-11T16:39:42.596Z,94.58
2022-12-11T16:42:45.949Z,93.92
2022-12-11T16:45:54.863Z,94.23
2022-12-11T16:48:58.219Z,92.98
2022-12-11T16:52:01.034Z,93.30
2022-12-11T16:55:04.538Z,94.17
2022-12-11T16:58:07.602Z,93.27
2022-12-11T17:01:12.853Z,92.74
2022-12-11T17:04:15.451Z,93.13
2022-12-11T17:07:19.810Z,93.99
2022-12-11T17:10:22.462Z,93.14
2022-12-11T17:13:25.609Z,93.87
2022-12-11T17:16:30.464Z,93.34
2022-12-11T17:19:33.428Z,93.34
2022-12-11T17:22:36.731Z,93.99
2022-12-11T17:25:41.433Z,93.14
2022-12-11T17:28:45.852Z,92.98
2022-12-11T17:31:48.936Z,94.14
2022-12-11T17:34:51.545Z,93.13
2022-12-11T17:37:54.840Z,93.09
2022-12-11T17:40:58.371Z,90.69
2022-12-11T17:44:01.291Z,91.84
2022-12-11T17:47:10.612Z,92.07
2022-12-11T17:50:14.534Z,92.18
2022-12-11T17:53:19.092Z,92.28
2022-12-11T17:56:22.849Z,91.19
2022-12-11T17:59:25.467Z,91.89
2022-12-11T18:02:28.745Z,90.62
2022-12-11T18:05:31.908Z,90.44
2022-12-11T18:08:34.783Z,91.41
2022-12-11T18:11:38.279Z,91.60
2022-12-11T18:14:41.066Z,91.20
2022-12-11T18:17:46.399Z,91.09
2022-12-11T18:20:51.138Z,90.67
2022-12-11T18:23:54.969Z,91.18
2022-12-11T18:26:59.295Z,89.34
2022-12-11T18:30:02.947Z,89.62
2022-12-11T18:33:05.868Z,90.84
2022-12-11T18:36:09.695Z,89.73
2022-12-11T18:39:13.628Z,89.29
2022-12-11T18:42:32.675Z,89.24
2022-12-11T18:45:40.472Z,90.49
2022-12-11T18:48:44.561Z,89.07
2022-12-11T18:51:47.823Z,90.42
2022-12-11T18:54:52.419Z,89.69
2022-12-11T18:57:55.255Z,89.87
2022-12-11T19:00:59.015Z,89.50
2022-12-11T19:04:06.509Z,89.95
2022-12-11T19:07:12.763Z,89.80
2022-12-11T19:10:19.653Z,87.97
2022-12-11T19:13:23.504Z,88.47
2022-12-11T19:16:38.587Z,90.84
2022-12-11T19:19:45.272Z,87.47
2022-12-11T19:22:48.327Z,88.31
2022-12-11T19:25:51.727Z,87.44
2022-12-11T19:28:57.021Z,87.12
2022-12-11T19:32:05.328Z,85.91
2022-12-11T19:35:08.251Z,88.47
2022-12-11T19:38:12.901Z,87.92
2022-12-11T19:41:29.636Z,87.43
2022-12-11T19:44:32.844Z,87.83
2022-12-11T19:47:36.175Z,88.27
2022-12-11T19:50:39.926Z,89.01
2022-12-11T19:53:44.090Z,88.31
2022-12-11T19:56:47.241Z,89.00
2022-12-11T19:59:56.775Z,88.35
2022-12-11T20:03:00.555Z,87.25
2022-12-11T20:06:07.500Z,88.28
2022-12-11T20:09:12.119Z,87.87
2022-12-11T20:12:15.526Z,87.17
2022-12-11T20:15:20.518Z,88.79
2022-12-11T20:18:23.731Z,88.32
2022-12-11T20:21:27.425Z,86.86
2022-12-11T20:24:30.898Z,85.99
2022-12-11T20:27:33.943Z,86.73
2022-12-11T20:30:37.670Z,86.90
2022-12-11T20:33:40.539Z,86.27
2022-12-11T20:36:43.507Z,87.21
2022-12-11T20:39:46.376Z,86.75
2022-12-11T20:42:51.009Z,86.95
2022-12-11T20:45:53.674Z,87.49
2022-12-11T20:48:58.901Z,85.44
2022-12-11T20:52:01.975Z,87.37
2022-12-11T20:55:07.551Z,85.75
2022-12-11T20:58:10.857Z,86.62
2022-12-11T21:01:19.460Z,86.11
2022-12-11T21:04:24.035Z,86.71
2022-12-11T21:07:27.103Z,86.41
2022-12-11T21:10:31.386Z,87.95
2022-12-11T21:13:36.179Z,87.67
2022-12-11T21:16:39.465Z,86.45
2022-12-11T21:19:42.363Z,86.24
2022-12-11T21:22:45.331Z,87.25
2022-12-11T21:25:51.431Z,87.66
2022-12-11T21:28:54.104Z,84.64
2022-12-11T21:31:57.876Z,86.88
2022-12-11T21:35:00.664Z,86.54
2022-12-11T21:38:03.570Z,86.62
2022-12-11T21:41:17.723Z,87.08
2022-12-11T21:47:44.617Z,86.70
2022-12-11T21:50:47.546Z,87.05
2022-12-11T21:53:50.825Z,86.41
2022-12-11T21:56:54.657Z,88.51
2022-12-11T21:59:57.383Z,89.33
2022-12-11T22:03:00.284Z,87.77
2022-12-11T22:06:03.287Z,90.30
2022-12-11T22:09:06.146Z,90.89
2022-12-11T22:12:17.515Z,90.15
2022-12-11T22:15:20.238Z,91.22
2022-12-11T22:18:27.093Z,93.14
2022-12-11T22:21:29.979Z,93.35
2022-12-11T22:24:32.871Z,92.88
2022-12-11T22:27:35.623Z,93.89
2022-12-11T22:30:38.962Z,95.69
2022-12-11T22:33:41.650Z,95.03
2022-12-11T22:36:44.616Z,95.65
2022-12-11T22:39:47.361Z,95.58
2022-12-11T22:42:50.224Z,95.95
2022-12-11T22:45:52.890Z,96.55
2022-12-11T22:48:57.229Z,98.49
2022-12-11T22:52:00.530Z,97.85
2022-12-11T22:55:04.511Z,98.74
2022-12-11T22:58:07.583Z,97.24
2022-12-11T23:01:13.263Z,98.59
2022-12-11T23:04:15.915Z,98.64
2022-12-11T23:07:18.883Z,98.84
2022-12-11T23:10:21.827Z,97.51
2022-12-11T23:13:24.700Z,97.89
2022-12-11T23:16:28.186Z,97.14
2022-12-11T23:19:31.193Z,97.43
2022-12-11T23:22:34.150Z,96.25
2022-12-11T23:25:37.599Z,97.19
2022-12-11T23:28:41.105Z,97.66
2022-12-11T23:31:44.128Z,96.24
2022-12-11T23:34:46.986Z,95.67
2022-12-11T23:37:49.871Z,96.31
2022-12-11T23:40:52.671Z,96.11
2022-12-11T23:43:55.705Z,95.00
2022-12-11T23:46:58.352Z,95.59
2022-12-11T23:50:01.214Z,97.01
2022-12-11T23:53:04.028Z,96.34
2022-12-11T23:56:11.102Z,95.34
2022-12-11T23:59:14.860Z,95.00
